sensor_id;sensor_type;location;lat;lon;timestamp;pressure;altitude;pressure_sealevel;temperature;humidity
48527;BME280;34317;51.660;5.824;2024-01-30T00:02:01;102585.72;;;11.46;59.33
48527;BME280;34317;51.660;5.824;2024-01-30T00:04:28;102584.00;;;11.45;59.44
48527;BME280;34317;51.660;5.824;2024-01-30T00:06:56;102591.13;;;11.43;59.43
48527;BME280;34317;51.660;5.824;2024-01-30T00:09:23;102589.34;;;11.42;59.46
48527;BME280;34317;51.660;5.824;2024-01-30T00:11:50;102584.09;;;11.39;59.40
48527;BME280;34317;51.660;5.824;2024-01-30T00:14:18;102591.22;;;11.37;59.23
48527;BME280;34317;51.660;5.824;2024-01-30T00:16:45;102586.00;;;11.34;59.33
48527;BME280;34317;51.660;5.824;2024-01-30T00:19:12;102587.81;;;11.32;59.55
48527;BME280;34317;51.660;5.824;2024-01-30T00:21:40;102589.59;;;11.30;59.52
48527;BME280;34317;51.660;5.824;2024-01-30T00:24:08;102587.03;;;11.27;59.49
48527;BME280;34317;51.660;5.824;2024-01-30T00:26:35;102588.84;;;11.25;59.39
48527;BME280;34317;51.660;5.824;2024-01-30T00:29:02;102590.66;;;11.21;59.49
48527;BME280;34317;51.660;5.824;2024-01-30T00:31:30;102588.03;;;11.20;59.38
48527;BME280;34317;51.660;5.824;2024-01-30T00:33:57;102590.72;;;11.18;59.30
48527;BME280;34317;51.660;5.824;2024-01-30T00:36:24;102582.78;;;11.17;59.33
48527;BME280;34317;51.660;5.824;2024-01-30T00:38:51;102579.31;;;11.13;59.42
48527;BME280;34317;51.660;5.824;2024-01-30T00:41:19;102577.59;;;11.10;59.43
48527;BME280;34317;51.660;5.824;2024-01-30T00:43:46;102582.97;;;11.07;59.67
48527;BME280;34317;51.660;5.824;2024-01-30T00:46:13;102579.53;;;11.04;59.52
48527;BME280;34317;51.660;5.824;2024-01-30T00:48:41;102582.19;;;11.02;59.82
48527;BME280;34317;51.660;5.824;2024-01-30T00:51:08;102574.28;;;10.99;59.54
48527;BME280;34317;51.660;5.824;2024-01-30T00:53:35;102576.09;;;10.97;59.67
48527;BME280;34317;51.660;5.824;2024-01-30T00:56:03;102569.03;;;10.96;59.71
48527;BME280;34317;51.660;5.824;2024-01-30T00:58:30;102572.59;;;10.95;59.86
48527;BME280;34317;51.660;5.824;2024-01-30T01:00:57;102573.50;;;10.94;59.82
48527;BME280;34317;51.660;5.824;2024-01-30T01:03:25;102571.75;;;10.93;59.98
48527;BME280;34317;51.660;5.824;2024-01-30T01:05:52;102576.16;;;10.94;59.87
48527;BME280;34317;51.660;5.824;2024-01-30T01:08:19;102576.16;;;10.94;59.89
48527;BME280;34317;51.660;5.824;2024-01-30T01:10:47;102571.75;;;10.93;59.79
48527;BME280;34317;51.660;5.824;2024-01-30T01:13:14;102574.41;;;10.93;59.96
48527;BME280;34317;51.660;5.824;2024-01-30T01:15:43;102570.00;;;10.92;59.73
48527;BME280;34317;51.660;5.824;2024-01-30T01:18:10;102568.25;;;10.93;59.71
48527;BME280;34317;51.660;5.824;2024-01-30T01:20:37;102564.69;;;10.92;59.67
48527;BME280;34317;51.660;5.824;2024-01-30T01:23:04;102560.28;;;10.93;60.03
48527;BME280;34317;51.660;5.824;2024-01-30T01:25:31;102558.50;;;10.93;59.72
48527;BME280;34317;51.660;5.824;2024-01-30T01:27:59;102555.00;;;10.91;59.84
48527;BME280;34317;51.660;5.824;2024-01-30T01:30:28;102553.25;;;10.90;59.64
48527;BME280;34317;51.660;5.824;2024-01-30T01:32:56;102560.34;;;10.88;59.79
48527;BME280;34317;51.660;5.824;2024-01-30T01:35:24;102550.69;;;10.85;59.61
48527;BME280;34317;51.660;5.824;2024-01-30T01:37:52;102546.31;;;10.83;59.51
48527;BME280;34317;51.660;5.824;2024-01-30T01:40:27;102546.38;;;10.80;59.88
48527;BME280;34317;51.660;5.824;2024-01-30T01:42:55;102544.69;;;10.76;59.48
48527;BME280;34317;51.660;5.824;2024-01-30T01:45:23;102534.16;;;10.73;59.61
48527;BME280;34317;51.660;5.824;2024-01-30T01:47:51;102535.94;;;10.70;59.52
48527;BME280;34317;51.660;5.824;2024-01-30T01:50:20;102537.75;;;10.68;59.74
48527;BME280;34317;51.660;5.824;2024-01-30T01:52:50;102540.44;;;10.67;59.99
48527;BME280;34317;51.660;5.824;2024-01-30T01:55:19;102535.13;;;10.67;60.01
48527;BME280;34317;51.660;5.824;2024-01-30T01:57:53;102536.00;;;10.67;59.75
48527;BME280;34317;51.660;5.824;2024-01-30T02:00:20;102533.34;;;10.67;59.67
48527;BME280;34317;51.660;5.824;2024-01-30T02:02:49;102539.56;;;10.66;59.84
48527;BME280;34317;51.660;5.824;2024-01-30T02:05:17;102531.63;;;10.66;59.97
48527;BME280;34317;51.660;5.824;2024-01-30T02:07:44;102534.28;;;10.66;59.82
48527;BME280;34317;51.660;5.824;2024-01-30T02:10:11;102528.06;;;10.66;59.99
48527;BME280;34317;51.660;5.824;2024-01-30T02:12:40;102530.78;;;10.64;59.81
48527;BME280;34317;51.660;5.824;2024-01-30T02:15:07;102536.97;;;10.63;60.06
48527;BME280;34317;51.660;5.824;2024-01-30T02:17:35;102524.56;;;10.64;60.09
48527;BME280;34317;51.660;5.824;2024-01-30T02:20:02;102523.72;;;10.63;60.08
48527;BME280;34317;51.660;5.824;2024-01-30T02:22:32;102532.50;;;10.65;60.12
48527;BME280;34317;51.660;5.824;2024-01-30T02:25:01;102529.84;;;10.67;60.00
48527;BME280;34317;51.660;5.824;2024-01-30T02:27:28;102527.16;;;10.68;60.21
48527;BME280;34317;51.660;5.824;2024-01-30T02:29:55;102528.03;;;10.69;60.04
48527;BME280;34317;51.660;5.824;2024-01-30T02:32:22;102528.00;;;10.70;60.05
48527;BME280;34317;51.660;5.824;2024-01-30T02:34:49;102526.19;;;10.73;60.03
48527;BME280;34317;51.660;5.824;2024-01-30T02:37:17;102523.56;;;10.73;60.37
48527;BME280;34317;51.660;5.824;2024-01-30T02:39:45;102529.66;;;10.76;60.10
48527;BME280;34317;51.660;5.824;2024-01-30T02:42:12;102519.94;;;10.77;60.02
48527;BME280;34317;51.660;5.824;2024-01-30T02:44:39;102519.03;;;10.78;60.11
48527;BME280;34317;51.660;5.824;2024-01-30T02:47:06;102507.53;;;10.79;60.09
48527;BME280;34317;51.660;5.824;2024-01-30T02:49:34;102511.94;;;10.80;60.15
48527;BME280;34317;51.660;5.824;2024-01-30T02:52:01;102507.47;;;10.82;60.05
48527;BME280;34317;51.660;5.824;2024-01-30T02:54:28;102507.47;;;10.82;60.20
48527;BME280;34317;51.660;5.824;2024-01-30T02:56:57;102511.84;;;10.83;60.27
48527;BME280;34317;51.660;5.824;2024-01-30T02:59:25;102510.09;;;10.83;60.11
48527;BME280;34317;51.660;5.824;2024-01-30T03:01:52;102505.66;;;10.84;59.98
48527;BME280;34317;51.660;5.824;2024-01-30T03:04:19;102502.09;;;10.85;60.03
48527;BME280;34317;51.660;5.824;2024-01-30T03:06:46;102502.09;;;10.85;60.18
48527;BME280;34317;51.660;5.824;2024-01-30T03:09:16;102503.00;;;10.85;60.02
48527;BME280;34317;51.660;5.824;2024-01-30T03:11:44;102497.66;;;10.87;60.11
48527;BME280;34317;51.660;5.824;2024-01-30T03:14:11;102500.31;;;10.87;60.02
48527;BME280;34317;51.660;5.824;2024-01-30T03:16:38;102491.44;;;10.88;60.16
48527;BME280;34317;51.660;5.824;2024-01-30T03:19:06;102496.75;;;10.88;60.19
48527;BME280;34317;51.660;5.824;2024-01-30T03:21:35;102498.50;;;10.89;59.95
48527;BME280;34317;51.660;5.824;2024-01-30T03:24:03;102491.41;;;10.91;59.92
48527;BME280;34317;51.660;5.824;2024-01-30T03:26:34;102487.81;;;10.92;60.03
48527;BME280;34317;51.660;5.824;2024-01-30T03:29:01;102487.81;;;10.92;60.04
48527;BME280;34317;51.660;5.824;2024-01-30T03:31:28;102481.59;;;10.95;59.82
48527;BME280;34317;51.660;5.824;2024-01-30T03:33:55;102482.47;;;10.95;59.92
48527;BME280;34317;51.660;5.824;2024-01-30T03:36:23;102470.06;;;10.97;59.92
48527;BME280;34317;51.660;5.824;2024-01-30T03:38:50;102476.22;;;10.98;59.90
48527;BME280;34317;51.660;5.824;2024-01-30T03:41:17;102476.22;;;10.98;59.98
48527;BME280;34317;51.660;5.824;2024-01-30T03:43:44;102470.06;;;10.97;59.83
48527;BME280;34317;51.660;5.824;2024-01-30T03:46:12;102466.50;;;10.98;59.92
48527;BME280;34317;51.660;5.824;2024-01-30T03:48:40;102467.38;;;10.99;59.90
48527;BME280;34317;51.660;5.824;2024-01-30T03:51:07;102461.22;;;10.98;60.02
48527;BME280;34317;51.660;5.824;2024-01-30T03:53:34;102455.91;;;10.98;59.80
48527;BME280;34317;51.660;5.824;2024-01-30T03:56:02;102461.22;;;10.98;60.13
48527;BME280;34317;51.660;5.824;2024-01-30T03:58:30;102466.50;;;10.98;60.08
48527;BME280;34317;51.660;5.824;2024-01-30T04:00:57;102461.22;;;10.98;59.98
48527;BME280;34317;51.660;5.824;2024-01-30T04:03:24;102462.94;;;10.99;60.01
48527;BME280;34317;51.660;5.824;2024-01-30T04:05:52;102464.69;;;11.00;60.16
48527;BME280;34317;51.660;5.824;2024-01-30T04:08:20;102467.34;;;11.00;60.06
48527;BME280;34317;51.660;5.824;2024-01-30T04:10:47;102471.72;;;11.01;60.19
48527;BME280;34317;51.660;5.824;2024-01-30T04:13:14;102478.78;;;11.02;59.79
48527;BME280;34317;51.660;5.824;2024-01-30T04:15:42;102469.91;;;11.03;60.01
48527;BME280;34317;51.660;5.824;2024-01-30T04:18:09;102476.97;;;11.04;59.95
48527;BME280;34317;51.660;5.824;2024-01-30T04:20:36;102473.41;;;11.05;60.09
48527;BME280;34317;51.660;5.824;2024-01-30T04:23:03;102476.91;;;11.07;59.97
48527;BME280;34317;51.660;5.824;2024-01-30T04:25:31;102475.13;;;11.09;60.19
48527;BME280;34317;51.660;5.824;2024-01-30T04:27:58;102474.19;;;11.10;59.96
48527;BME280;34317;51.660;5.824;2024-01-30T04:30:25;102465.28;;;11.13;60.36
48527;BME280;34317;51.660;5.824;2024-01-30T04:32:52;102464.38;;;11.16;60.21
48527;BME280;34317;51.660;5.824;2024-01-30T04:35:20;102467.88;;;11.18;60.00
48527;BME280;34317;51.660;5.824;2024-01-30T04:37:52;102461.63;;;11.19;59.96
48527;BME280;34317;51.660;5.824;2024-01-30T04:40:21;102460.75;;;11.20;60.12
48527;BME280;34317;51.660;5.824;2024-01-30T04:42:48;102463.41;;;11.20;60.17
48527;BME280;34317;51.660;5.824;2024-01-30T04:45:15;102459.84;;;11.21;60.00
48527;BME280;34317;51.660;5.824;2024-01-30T04:48:08;102457.19;;;11.21;60.26
48527;BME280;34317;51.660;5.824;2024-01-30T04:50:35;102455.41;;;11.21;59.96
48527;BME280;34317;51.660;5.824;2024-01-30T04:53:03;102458.03;;;11.23;60.09
48527;BME280;34317;51.660;5.824;2024-01-30T04:55:30;102457.09;;;11.24;60.07
48527;BME280;34317;51.660;5.824;2024-01-30T04:57:57;102448.25;;;11.25;60.08
48527;BME280;34317;51.660;5.824;2024-01-30T05:00:25;102445.59;;;11.26;60.17
48527;BME280;34317;51.660;5.824;2024-01-30T05:02:52;102447.31;;;11.27;60.22
48527;BME280;34317;51.660;5.824;2024-01-30T05:05:19;102449.94;;;11.29;60.12
48527;BME280;34317;51.660;5.824;2024-01-30T05:07:46;102440.19;;;11.29;60.23
48527;BME280;34317;51.660;5.824;2024-01-30T05:10:13;102437.50;;;11.31;60.16
48527;BME280;34317;51.660;5.824;2024-01-30T05:12:41;102444.56;;;11.32;60.00
48527;BME280;34317;51.660;5.824;2024-01-30T05:15:08;102435.69;;;11.33;60.09
48527;BME280;34317;51.660;5.824;2024-01-30T05:17:36;102433.03;;;11.33;60.23
48527;BME280;34317;51.660;5.824;2024-01-30T05:20:03;102433.88;;;11.35;60.20
48527;BME280;34317;51.660;5.824;2024-01-30T05:22:32;102430.31;;;11.36;60.20
48527;BME280;34317;51.660;5.824;2024-01-30T05:24:59;102435.53;;;11.39;60.24
48527;BME280;34317;51.660;5.824;2024-01-30T05:27:26;102432.84;;;11.42;60.20
48527;BME280;34317;51.660;5.824;2024-01-30T05:29:53;102444.28;;;11.44;60.10
48527;BME280;34317;51.660;5.824;2024-01-30T05:32:20;102441.56;;;11.47;60.24
48527;BME280;34317;51.660;5.824;2024-01-30T05:34:48;102451.25;;;11.48;60.22
48527;BME280;34317;51.660;5.824;2024-01-30T05:37:17;102454.75;;;11.50;60.12
48527;BME280;34317;51.660;5.824;2024-01-30T05:39:45;102452.91;;;11.53;60.49
48527;BME280;34317;51.660;5.824;2024-01-30T05:42:12;102453.72;;;11.56;60.46
48527;BME280;34317;51.660;5.824;2024-01-30T05:44:39;102454.53;;;11.60;60.36
48527;BME280;34317;51.660;5.824;2024-01-30T05:47:06;102450.00;;;11.65;60.46
48527;BME280;34317;51.660;5.824;2024-01-30T05:49:34;102448.16;;;11.68;60.37
48527;BME280;34317;51.660;5.824;2024-01-30T05:52:03;102448.94;;;11.72;60.39
48527;BME280;34317;51.660;5.824;2024-01-30T05:54:31;102447.97;;;11.76;60.48
48527;BME280;34317;51.660;5.824;2024-01-30T05:56:58;102448.78;;;11.78;60.32
48527;BME280;34317;51.660;5.824;2024-01-30T05:59:25;102452.28;;;11.80;60.42
48527;BME280;34317;51.660;5.824;2024-01-30T06:01:52;102449.59;;;11.82;60.22
48527;BME280;34317;51.660;5.824;2024-01-30T06:04:20;102453.94;;;11.84;60.27
48527;BME280;34317;51.660;5.824;2024-01-30T06:06:47;102452.13;;;11.86;60.28
48527;BME280;34317;51.660;5.824;2024-01-30T06:09:14;102448.56;;;11.87;60.41
48527;BME280;34317;51.660;5.824;2024-01-30T06:11:42;102450.31;;;11.88;60.23
48527;BME280;34317;51.660;5.824;2024-01-30T06:14:09;102449.44;;;11.90;60.45
48527;BME280;34317;51.660;5.824;2024-01-30T06:16:36;102459.16;;;11.91;60.12
48527;BME280;34317;51.660;5.824;2024-01-30T06:19:03;102442.34;;;11.90;59.90
48527;BME280;34317;51.660;5.824;2024-01-30T06:21:31;102447.63;;;11.90;60.39
48527;BME280;34317;51.660;5.824;2024-01-30T06:23:59;102437.03;;;11.90;60.08
48527;BME280;34317;51.660;5.824;2024-01-30T06:26:26;102437.91;;;11.91;60.16
48527;BME280;34317;51.660;5.824;2024-01-30T06:28:53;102447.63;;;11.90;60.17
48527;BME280;34317;51.660;5.824;2024-01-30T06:31:20;102452.09;;;11.88;60.13
48527;BME280;34317;51.660;5.824;2024-01-30T06:33:49;102459.16;;;11.91;60.53
48527;BME280;34317;51.660;5.824;2024-01-30T06:36:16;102457.41;;;11.90;60.11
48527;BME280;34317;51.660;5.824;2024-01-30T06:38:44;102461.81;;;11.89;60.19
48527;BME280;34317;51.660;5.824;2024-01-30T06:41:11;102459.16;;;11.91;60.05
48527;BME280;34317;51.660;5.824;2024-01-30T06:43:38;102457.41;;;11.90;60.03
48527;BME280;34317;51.660;5.824;2024-01-30T06:46:06;102448.53;;;11.91;60.08
48527;BME280;34317;51.660;5.824;2024-01-30T06:48:33;102460.03;;;11.91;60.13
48527;BME280;34317;51.660;5.824;2024-01-30T06:51:00;102464.47;;;11.91;59.91
48527;BME280;34317;51.660;5.824;2024-01-30T06:53:28;102466.19;;;11.92;60.01
48527;BME280;34317;51.660;5.824;2024-01-30T06:55:55;102467.97;;;11.93;59.86
48527;BME280;34317;51.660;5.824;2024-01-30T06:58:22;102462.66;;;11.93;59.85
48527;BME280;34317;51.660;5.824;2024-01-30T07:00:49;102474.13;;;11.93;60.05
48527;BME280;34317;51.660;5.824;2024-01-30T07:03:16;102472.34;;;11.94;59.93
48527;BME280;34317;51.660;5.824;2024-01-30T07:05:43;102480.31;;;11.94;59.85
48527;BME280;34317;51.660;5.824;2024-01-30T07:08:11;102486.53;;;11.93;60.01
48527;BME280;34317;51.660;5.824;2024-01-30T07:10:38;102483.88;;;11.93;59.94
48527;BME280;34317;51.660;5.824;2024-01-30T07:13:05;102482.13;;;11.92;60.06
48527;BME280;34317;51.660;5.824;2024-01-30T07:15:33;102487.44;;;11.92;60.09
48527;BME280;34317;51.660;5.824;2024-01-30T07:18:00;102487.44;;;11.92;59.86
48527;BME280;34317;51.660;5.824;2024-01-30T07:20:28;102491.03;;;11.91;59.99
48527;BME280;34317;51.660;5.824;2024-01-30T07:22:58;102501.56;;;11.92;59.89
48527;BME280;34317;51.660;5.824;2024-01-30T07:25:25;102501.63;;;11.91;60.01
48527;BME280;34317;51.660;5.824;2024-01-30T07:27:54;102498.06;;;11.92;59.99
48527;BME280;34317;51.660;5.824;2024-01-30T07:30:21;102506.03;;;11.92;59.99
48527;BME280;34317;51.660;5.824;2024-01-30T07:32:50;102517.47;;;11.94;60.11
48527;BME280;34317;51.660;5.824;2024-01-30T07:35:17;102511.28;;;11.95;60.04
48527;BME280;34317;51.660;5.824;2024-01-30T07:37:44;102513.94;;;11.95;60.18
48527;BME280;34317;51.660;5.824;2024-01-30T07:40:12;102512.09;;;11.97;59.85
48527;BME280;34317;51.660;5.824;2024-01-30T07:42:39;102507.63;;;11.99;60.16
48527;BME280;34317;51.660;5.824;2024-01-30T07:45:06;102512.91;;;12.00;59.89
48527;BME280;34317;51.660;5.824;2024-01-30T07:47:34;102517.19;;;12.06;60.44
48527;BME280;34317;51.660;5.824;2024-01-30T07:50:01;102511.78;;;12.09;60.23
48527;BME280;34317;51.660;5.824;2024-01-30T07:52:28;102507.28;;;12.13;60.12
48527;BME280;34317;51.660;5.824;2024-01-30T07:54:56;102516.97;;;12.15;60.20
48527;BME280;34317;51.660;5.824;2024-01-30T07:57:23;102507.03;;;12.22;59.82
48527;BME280;34317;51.660;5.824;2024-01-30T07:59:51;102521.16;;;12.24;60.12
48527;BME280;34317;51.660;5.824;2024-01-30T08:02:18;102527.28;;;12.27;60.20
48527;BME280;34317;51.660;5.824;2024-01-30T08:04:46;102537.84;;;12.31;60.29
48527;BME280;34317;51.660;5.824;2024-01-30T08:07:16;102527.13;;;12.34;60.26
48527;BME280;34317;51.660;5.824;2024-01-30T08:09:44;102535.84;;;12.39;60.27
48527;BME280;34317;51.660;5.824;2024-01-30T08:12:12;102534.03;;;12.41;60.16
48527;BME280;34317;51.660;5.824;2024-01-30T08:14:40;102518.88;;;12.44;60.18
48527;BME280;34317;51.660;5.824;2024-01-30T08:17:08;102533.88;;;12.47;60.10
48527;BME280;34317;51.660;5.824;2024-01-30T08:19:35;102537.31;;;12.51;60.16
48527;BME280;34317;51.660;5.824;2024-01-30T08:22:03;102531.03;;;12.55;60.26
48527;BME280;34317;51.660;5.824;2024-01-30T08:24:30;102533.56;;;12.59;60.35
48527;BME280;34317;51.660;5.824;2024-01-30T08:26:57;102533.38;;;12.65;60.30
48527;BME280;34317;51.660;5.824;2024-01-30T08:29:25;102536.78;;;12.71;60.24
48527;BME280;34317;51.660;5.824;2024-01-30T08:31:52;102536.63;;;12.77;60.22
48527;BME280;34317;51.660;5.824;2024-01-30T08:34:20;102534.72;;;12.82;60.27
48527;BME280;34317;51.660;5.824;2024-01-30T08:36:48;102538.13;;;12.87;60.01
48527;BME280;34317;51.660;5.824;2024-01-30T08:39:15;102528.25;;;12.92;60.14
48527;BME280;34317;51.660;5.824;2024-01-30T08:41:42;102527.25;;;12.96;60.25
48527;BME280;34317;51.660;5.824;2024-01-30T08:44:10;102533.28;;;13.01;60.28
48527;BME280;34317;51.660;5.824;2024-01-30T08:46:38;102530.47;;;13.08;60.11
48527;BME280;34317;51.660;5.824;2024-01-30T08:49:05;102533.91;;;13.11;60.11
48527;BME280;34317;51.660;5.824;2024-01-30T08:51:33;102532.06;;;13.15;60.09
48527;BME280;34317;51.660;5.824;2024-01-30T08:54:02;102539.03;;;13.19;60.12
48527;BME280;34317;51.660;5.824;2024-01-30T08:56:29;102540.66;;;13.23;60.00
48527;BME280;34317;51.660;5.824;2024-01-30T08:58:57;102535.28;;;13.26;60.16
48527;BME280;34317;51.660;5.824;2024-01-30T09:01:25;102538.69;;;13.31;60.15
48527;BME280;34317;51.660;5.824;2024-01-30T09:03:52;102540.31;;;13.35;60.06
48527;BME280;34317;51.660;5.824;2024-01-30T09:06:19;102540.25;;;13.38;59.94
48527;BME280;34317;51.660;5.824;2024-01-30T09:08:46;102537.47;;;13.43;59.96
48527;BME280;34317;51.660;5.824;2024-01-30T09:11:14;102538.22;;;13.47;60.02
48527;BME280;34317;51.660;5.824;2024-01-30T09:13:42;102532.81;;;13.50;59.94
48527;BME280;34317;51.660;5.824;2024-01-30T09:16:09;102539.78;;;13.54;59.90
48527;BME280;34317;51.660;5.824;2024-01-30T09:18:37;102539.72;;;13.57;59.68
48527;BME280;34317;51.660;5.824;2024-01-30T09:21:04;102546.66;;;13.61;59.93
48527;BME280;34317;51.660;5.824;2024-01-30T09:23:32;102544.84;;;13.63;59.95
48527;BME280;34317;51.660;5.824;2024-01-30T09:25:59;102548.31;;;13.65;59.67
48527;BME280;34317;51.660;5.824;2024-01-30T09:28:28;102557.13;;;13.67;59.80
48527;BME280;34317;51.660;5.824;2024-01-30T09:30:55;102557.03;;;13.70;59.84
48527;BME280;34317;51.660;5.824;2024-01-30T09:33:23;102566.72;;;13.73;59.66
48527;BME280;34317;51.660;5.824;2024-01-30T09:35:50;102564.00;;;13.74;59.85
48527;BME280;34317;51.660;5.824;2024-01-30T09:38:18;102562.19;;;13.76;59.84
48527;BME280;34317;51.660;5.824;2024-01-30T09:40:50;102571.81;;;13.80;59.87
48527;BME280;34317;51.660;5.824;2024-01-30T09:43:22;102566.41;;;13.83;59.67
48527;BME280;34317;51.660;5.824;2024-01-30T09:45:54;102565.38;;;13.88;59.77
48527;BME280;34317;51.660;5.824;2024-01-30T09:48:23;102567.97;;;13.91;59.74
48527;BME280;34317;51.660;5.824;2024-01-30T09:50:50;102570.53;;;13.94;59.77
48527;BME280;34317;51.660;5.824;2024-01-30T09:53:20;102570.41;;;13.97;59.65
48527;BME280;34317;51.660;5.824;2024-01-30T09:55:50;102571.25;;;13.99;59.72
48527;BME280;34317;51.660;5.824;2024-01-30T09:58:17;102566.72;;;14.01;59.87
48527;BME280;34317;51.660;5.824;2024-01-30T10:00:45;102578.16;;;14.05;59.76
48527;BME280;34317;51.660;5.824;2024-01-30T10:03:12;102577.22;;;14.07;59.66
48527;BME280;34317;51.660;5.824;2024-01-30T10:05:43;102569.09;;;14.10;59.60
48527;BME280;34317;51.660;5.824;2024-01-30T10:08:17;102563.72;;;14.12;59.56
48527;BME280;34317;51.660;5.824;2024-01-30T10:10:50;102566.34;;;14.13;59.56
48527;BME280;34317;51.660;5.824;2024-01-30T10:13:17;102571.56;;;14.16;59.57
48527;BME280;34317;51.660;5.824;2024-01-30T10:15:45;102575.06;;;14.18;59.43
48527;BME280;34317;51.660;5.824;2024-01-30T10:18:12;102579.38;;;14.23;59.55
48527;BME280;34317;51.660;5.824;2024-01-30T10:20:42;102576.59;;;14.26;59.67
48527;BME280;34317;51.660;5.824;2024-01-30T10:23:09;102572.94;;;14.30;59.51
48527;BME280;34317;51.660;5.824;2024-01-30T10:25:37;102572.81;;;14.33;59.68
48527;BME280;34317;51.660;5.824;2024-01-30T10:28:05;102575.44;;;14.34;59.42
48527;BME280;34317;51.660;5.824;2024-01-30T10:30:33;102570.88;;;14.38;59.57
48527;BME280;34317;51.660;5.824;2024-01-30T10:33:00;102580.56;;;14.40;59.51
48527;BME280;34317;51.660;5.824;2024-01-30T10:35:27;102582.13;;;14.46;59.56
48527;BME280;34317;51.660;5.824;2024-01-30T10:37:56;102593.56;;;14.50;59.62
48527;BME280;34317;51.660;5.824;2024-01-30T10:40:27;102588.09;;;14.54;59.69
48527;BME280;34317;51.660;5.824;2024-01-30T10:42:55;102596.94;;;14.56;59.48
48527;BME280;34317;51.660;5.824;2024-01-30T10:45:26;102584.44;;;14.58;59.38
48527;BME280;34317;51.660;5.824;2024-01-30T10:47:55;102589.78;;;14.58;59.33
48527;BME280;34317;51.660;5.824;2024-01-30T10:50:25;102590.59;;;14.60;59.31
48527;BME280;34317;51.660;5.824;2024-01-30T10:52:54;102586.06;;;14.63;59.56
48527;BME280;34317;51.660;5.824;2024-01-30T10:55:22;102581.50;;;14.66;59.37
48527;BME280;34317;51.660;5.824;2024-01-30T10:57:51;102585.75;;;14.72;59.66
48527;BME280;34317;51.660;5.824;2024-01-30T11:00:18;102582.06;;;14.76;59.37
48527;BME280;34317;51.660;5.824;2024-01-30T11:02:49;102590.78;;;14.81;59.50
48527;BME280;34317;51.660;5.824;2024-01-30T11:05:24;102583.50;;;14.86;59.64
48527;BME280;34317;51.660;5.824;2024-01-30T11:08:10;102579.78;;;14.90;59.53
48527;BME280;34317;51.660;5.824;2024-01-30T11:10:47;102576.09;;;14.94;59.38
48527;BME280;34317;51.660;5.824;2024-01-30T11:13:15;102577.72;;;14.98;59.54
48527;BME280;34317;51.660;5.824;2024-01-30T11:15:42;102580.34;;;15.00;59.49
48527;BME280;34317;51.660;5.824;2024-01-30T11:18:09;102586.44;;;15.04;59.31
48527;BME280;34317;51.660;5.824;2024-01-30T11:20:37;102584.53;;;15.07;59.36
48527;BME280;34317;51.660;5.824;2024-01-30T11:23:04;102589.81;;;15.09;59.54
48527;BME280;34317;51.660;5.824;2024-01-30T11:25:35;102589.69;;;15.12;59.25
48527;BME280;34317;51.660;5.824;2024-01-30T11:28:03;102588.63;;;15.16;59.37
48527;BME280;34317;51.660;5.824;2024-01-30T11:30:32;102590.28;;;15.20;59.39
48527;BME280;34317;51.660;5.824;2024-01-30T11:33:06;102578.56;;;15.24;59.49
48527;BME280;34317;51.660;5.824;2024-01-30T11:35:36;102575.84;;;15.26;59.21
48527;BME280;34317;51.660;5.824;2024-01-30T11:38:05;102576.72;;;15.26;59.23
48527;BME280;34317;51.660;5.824;2024-01-30T11:40:34;102568.66;;;15.28;59.20
48527;BME280;34317;51.660;5.824;2024-01-30T11:43:03;102573.09;;;15.27;59.26
48527;BME280;34317;51.660;5.824;2024-01-30T11:45:35;102569.53;;;15.28;59.26
48527;BME280;34317;51.660;5.824;2024-01-30T11:48:04;102572.09;;;15.31;59.14
48527;BME280;34317;51.660;5.824;2024-01-30T11:50:33;102576.47;;;15.32;59.26
48527;BME280;34317;51.660;5.824;2024-01-30T11:53:00;102578.09;;;15.36;59.16
48527;BME280;34317;51.660;5.824;2024-01-30T11:55:32;102582.53;;;15.37;59.12
48527;BME280;34317;51.660;5.824;2024-01-30T11:58:02;102579.72;;;15.41;59.15
48527;BME280;34317;51.660;5.824;2024-01-30T12:00:30;102583.22;;;15.43;59.03
48527;BME280;34317;51.660;5.824;2024-01-30T12:03:02;102577.75;;;15.46;59.04
48527;BME280;34317;51.660;5.824;2024-01-30T12:05:30;102580.31;;;15.49;59.24
48527;BME280;34317;51.660;5.824;2024-01-30T12:07:58;102584.63;;;15.53;59.11
48527;BME280;34317;51.660;5.824;2024-01-30T12:10:27;102588.09;;;15.55;58.97
48527;BME280;34317;51.660;5.824;2024-01-30T12:12:56;102591.56;;;15.57;58.88
48527;BME280;34317;51.660;5.824;2024-01-30T12:15:24;102589.72;;;15.59;58.73
48527;BME280;34317;51.660;5.824;2024-01-30T12:17:51;102593.19;;;15.61;58.72
48527;BME280;34317;51.660;5.824;2024-01-30T12:20:19;102580.78;;;15.60;58.53
48527;BME280;34317;51.660;5.824;2024-01-30T12:22:49;102586.13;;;15.60;58.58
48527;BME280;34317;51.660;5.824;2024-01-30T12:25:18;102587.84;;;15.61;58.33
48527;BME280;34317;51.660;5.824;2024-01-30T12:27:47;102586.13;;;15.60;58.21
48527;BME280;34317;51.660;5.824;2024-01-30T12:30:20;102592.38;;;15.59;58.13
48527;BME280;34317;51.660;5.824;2024-01-30T12:32:50;102605.75;;;15.59;58.07
48527;BME280;34317;51.660;5.824;2024-01-30T12:35:19;102598.69;;;15.58;57.81
48527;BME280;34317;51.660;5.824;2024-01-30T12:37:48;102602.25;;;15.57;57.89
48527;BME280;34317;51.660;5.824;2024-01-30T12:40:16;102595.19;;;15.56;57.54
48527;BME280;34317;51.660;5.824;2024-01-30T12:42:46;102603.31;;;15.53;57.82
48527;BME280;34317;51.660;5.824;2024-01-30T12:45:17;102609.56;;;15.52;57.65
48527;BME280;34317;51.660;5.824;2024-01-30T12:47:50;102618.53;;;15.51;57.67
48527;BME280;34317;51.660;5.824;2024-01-30T12:50:17;102607.03;;;15.49;57.51
48527;BME280;34317;51.660;5.824;2024-01-30T12:52:46;102608.94;;;15.45;57.47
48527;BME280;34317;51.660;5.824;2024-01-30T12:55:16;102608.19;;;15.42;57.27